KPOB

Pope AAF Airport

Fayetteville, North Carolina, USA
TAF AMD KPOB 212010Z 2120/2224 35010G15KT 9999 SKC QNH3039INS BECMG 2122/2123 VRB04KT 9999 SKC QNH3045INS TX05/2218Z TNM08/2211Z
Issued Valid From Valid To
Jan-21 @ 20:10 UTC
(4 hours ago)
Jan-21 @ 20:00 UTC
(5 hours ago)
Jan-23 @ 00:00 UTC
(in 23 hours)
Expired Click to View Jan-21 @ 20:00 to Jan-21 @ 22:00
TAF AMD KPOB 212010Z 2120/2224 35010G15KT 9999 SKC QNH3039INS
Wind Visibility Clouds Readings
350° at 10 knots
 Gusting to 15 knots
Greater than 6 miles
  • Clear skies
Altimeter 30.38" Hg
Pressure 1028.92 hPa
Becoming Jan-21 @ 22:00 to Jan-23 @ 00:00
BECMG 2122/2123 VRB04KT 9999 SKC QNH3045INS TX05/2218Z TNM08/2211Z
Wind Visibility Clouds Readings
Variable at 4 knots Greater than 6 miles
  • Clear skies
Altimeter 30.44" Hg
Pressure 1030.91 hPa
TAF AMD KPOB 212010Z 2120/2224 35010G15KT 9999 SKC QNH3039INS BECMG 2122/2123 VRB04KT 9999 SKC QNH3045INS TX05/2218Z TNM08/2211Z
Issued Jan-21 @ 20:10 UTC
(4 hours ago)
Valid From Jan-21 @ 20:00 UTC
(5 hours ago)
Valid To Jan-23 @ 00:00 UTC
(in 23 hours)
Jan-21 @ 20:00 - Jan-21 @ 22:00
Wind Visibility
350° at 10 knots
 Gusting to 15 knots
Greater than 6 miles
Clouds
  • Clear skies
Becoming Jan-21 @ 22:00 - Jan-23 @ 00:00
Wind Visibility
Variable at 4 knots Greater than 6 miles
Clouds
  • Clear skies